Nezperce, ID (83543)

8:17 PM PDT on August 22, 2014 (GMT -0700)
Highland Schools | Change Station
CLOSE
Current Station
Personal Weather Station
Location: Craigmont, ID
Elevation: 3783 ft
Nearby Weather Stations

Elev 3783 ft 46.24 °N, 116.47 °W | Updated 2 seconds ago

Scattered Clouds
Scattered Clouds
66.6 °F
Feels Like 66.6 °F
N
0.0
Wind Variable Wind from North
Gusts 0.0 mph

Today
High -- | Low -- °F
--% Chance of Precip.
Yesterday
High -- | Low -- °F
Precip. -- in
5:52 AM 7:41 PM
Waning Crescent, 5% visible
Pressure 30.08 in
Visibility 10.0 miles
Clouds Scattered Clouds 12000 ft
Dew Point 51 °F
Humidity 57%
Rainfall 0.00 in
Snow Depth Not available.
UV 0 out of 12
Pollen 6.30 out of 12
PM2.5 Good
Flu Activity Not available.
METAR KGIC 230255Z AUTO 25005KT 10SM SCT120 13/08 A3008 RMK AO1 60003 T01310078

More Conditions Fewer Conditions

Pressure 30.08 in
Visibility 10.0 miles
Clouds Scattered Clouds 12000 ft
Dew Point 51 °F
Humidity 57%
Rainfall 0.00 in
Snow Depth Not available.
UV 0 out of 12
Pollen 6.30 out of 12
PM2.5 Good
Flu Activity Not available.
METAR KGIC 230255Z AUTO 25005KT 10SM SCT120 13/08 A3008 RMK AO1 60003 T01310078

More Conditions Fewer Conditions

Nowcast | as of 7:06 PM PDT on August 22, 2014

Through 9 PM...thunderstorms moving slowly to the southwest at 5 mph will continue to impact areas mainly south of Interstate 90 in Whitman...Latah...Garfield...Asotin...and Nez Perce counties. These storms will be capable of producing brief heavy rain and small hail. Storms will continue to develop with the towns of La Crosse...Almota...Mayview...and Anatone in close proximity to these storms.

×

10-Day Weather Forecast

Almanac

Astronomy

Aug. 22, 2014 Rise Set
Actual Time 5:52 AM PDT 7:41 PM PDT
Civil Twilight 5:20 AM PDT 8:13 PM PDT
Nautical Twilight 4:41 AM PDT 8:52 PM PDT
Astronomical Twilight 3:58 AM PDT 9:35 PM PDT
Moon 3:15 AM PDT (8/22) 5:55 PM PDT (8/22)
Length of Visible Light 14h 52m
Length of Day
13h 48m
Tomorrow will be 3m 2s shorter.
Waning Crescent, 5% of the Moon is Illuminated
Today
Waning Crescent
Aug 25
New
Sep 2
First Quarter
Sep 8
Full
Sep 15
Last Quarter

Today's Extremes

State Highs State Lows

Community

WunderPhotos

Upload Photos

1,746,345 photos uploaded!

WunderBlogs® & News

Nearby

Air Quality

  Air Quality AQ Index Pollutant
Yesterday Good
PM2.5
Current Good
PM2.5
Friday Good
PM2.5
Saturday Good
PM2.5
Sunday Good
PM2.5
Monday Good
PM2.5

Snow Depth

Station Depth Elevation
Hemlock Butte 0 in 5810 ft
Moscow Mountain 0 in 4700 ft
Sherwin 0 in 3200 ft
Crater Meadows 0 in 5960 ft
Lost Lake 0 in 6110 ft

Earthquake Activity

City Distance Mag. Time & Date
No recent earthquake activity has been reported nearby.
Minimum magnitude displayed is 2.5.

Coastal Water Temperatures

Place Temperature
No Stations Reporting

Nearby Weather Stations